createdAt,value
2023-05-22T00:00:52.183Z,17.54
2023-05-22T00:01:52.377Z,17.54
2023-05-22T00:02:52.684Z,17.53
2023-05-22T00:03:52.646Z,17.51
2023-05-22T00:04:52.887Z,17.53
2023-05-22T00:05:53.019Z,17.49
2023-05-22T00:06:53.912Z,17.49
2023-05-22T00:07:53.310Z,17.47
2023-05-22T00:08:53.463Z,17.47
2023-05-22T00:09:53.606Z,17.47
2023-05-22T00:10:53.762Z,17.47
2023-05-22T00:11:53.920Z,17.49
2023-05-22T00:12:54.077Z,17.47
2023-05-22T00:13:54.306Z,17.50
2023-05-22T00:14:54.520Z,17.49
2023-05-22T00:15:54.709Z,17.49
2023-05-22T00:16:54.936Z,17.50
2023-05-22T00:17:55.082Z,17.47
2023-05-22T00:18:55.283Z,17.49
2023-05-22T00:19:55.445Z,17.46
2023-05-22T00:20:55.623Z,17.43
2023-05-22T00:21:55.843Z,17.43
2023-05-22T00:22:55.938Z,17.43
2023-05-22T00:23:56.110Z,17.40
2023-05-22T00:24:56.241Z,17.41
2023-05-22T00:25:56.395Z,17.44
2023-05-22T00:26:56.543Z,17.43
2023-05-22T00:27:56.653Z,17.36
2023-05-22T00:28:56.788Z,17.39
2023-05-22T00:29:56.973Z,17.27
2023-05-22T00:30:57.211Z,17.32
2023-05-22T00:31:57.353Z,17.29
2023-05-22T00:32:57.549Z,17.30
2023-05-22T00:33:57.636Z,17.25
2023-05-22T00:34:57.784Z,17.11
2023-05-22T00:35:57.911Z,17.09
2023-05-22T00:36:58.098Z,16.96
2023-05-22T00:37:58.349Z,16.91
2023-05-22T00:38:58.467Z,16.98
2023-05-22T00:39:58.647Z,16.91
2023-05-22T00:40:58.901Z,16.94
2023-05-22T00:41:58.993Z,16.96
2023-05-22T00:42:59.171Z,16.96
2023-05-22T00:43:59.328Z,17.01
2023-05-22T00:44:59.545Z,17.02
2023-05-22T00:45:59.638Z,17.02
2023-05-22T00:46:59.910Z,17.02
2023-05-22T00:47:59.966Z,17.02
2023-05-22T00:49:00.184Z,17.06
2023-05-22T00:50:00.294Z,17.04
2023-05-22T00:51:00.443Z,17.06
2023-05-22T00:52:00.609Z,17.06
2023-05-22T00:53:00.752Z,17.09
2023-05-22T00:54:00.933Z,17.09
2023-05-22T00:55:01.038Z,17.13
2023-05-22T00:56:01.272Z,17.15
2023-05-22T00:57:01.526Z,17.13
2023-05-22T00:58:01.661Z,17.12
2023-05-22T00:59:01.889Z,17.12
2023-05-22T01:00:01.953Z,17.16
2023-05-22T01:01:02.104Z,17.13
2023-05-22T01:02:02.280Z,17.16
2023-05-22T01:03:02.544Z,17.16
2023-05-22T01:04:02.972Z,17.19
2023-05-22T01:05:02.930Z,17.21
2023-05-22T01:06:03.150Z,17.15
2023-05-22T01:07:03.353Z,17.21
2023-05-22T01:08:03.465Z,17.19
2023-05-22T01:09:03.730Z,17.22
2023-05-22T01:10:03.836Z,17.21
2023-05-22T01:11:03.992Z,17.21
2023-05-22T01:12:04.143Z,17.22
2023-05-22T01:13:04.338Z,17.18
2023-05-22T01:14:05.508Z,17.19
2023-05-22T01:15:04.731Z,17.16
2023-05-22T01:16:04.899Z,17.15
2023-05-22T01:17:05.013Z,17.06
2023-05-22T01:18:05.173Z,17.09
2023-05-22T01:19:05.326Z,17.12
2023-05-22T01:20:05.723Z,17.11
2023-05-22T01:21:05.790Z,17.09
2023-05-22T01:22:06.033Z,17.11
2023-05-22T01:23:06.265Z,17.11
2023-05-22T01:24:06.655Z,17.13
2023-05-22T01:25:06.636Z,17.16
2023-05-22T01:26:06.773Z,17.15
2023-05-22T01:27:06.989Z,17.16
2023-05-22T01:28:07.070Z,17.15
2023-05-22T01:29:07.225Z,17.16
2023-05-22T01:30:07.409Z,17.13
2023-05-22T01:31:07.651Z,17.13
2023-05-22T01:32:07.787Z,17.12
2023-05-22T01:33:08.062Z,17.13
2023-05-22T01:34:08.127Z,17.13
2023-05-22T01:35:08.204Z,17.13
2023-05-22T01:36:08.363Z,17.13
2023-05-22T01:37:08.502Z,17.12
2023-05-22T01:38:08.653Z,17.11
2023-05-22T01:39:08.785Z,17.09
2023-05-22T01:40:08.922Z,17.12
2023-05-22T01:41:09.188Z,17.09
2023-05-22T01:42:09.320Z,17.08
2023-05-22T01:43:09.465Z,17.09
2023-05-22T01:44:09.613Z,17.08
2023-05-22T01:45:09.766Z,17.05
2023-05-22T01:46:10.000Z,17.06
2023-05-22T01:47:10.118Z,17.08
2023-05-22T01:48:10.348Z,17.04
2023-05-22T01:49:10.393Z,16.95
2023-05-22T01:50:10.599Z,16.82
2023-05-22T01:51:10.778Z,16.84
2023-05-22T01:52:10.964Z,16.77
2023-05-22T01:53:11.145Z,16.80
2023-05-22T01:54:11.313Z,16.81
2023-05-22T01:55:11.497Z,16.81
2023-05-22T01:56:11.689Z,16.71
2023-05-22T01:57:11.861Z,16.63
2023-05-22T01:58:12.092Z,16.50
2023-05-22T01:59:12.359Z,16.46
2023-05-22T02:00:12.516Z,16.53
2023-05-22T02:01:12.727Z,16.53
2023-05-22T02:02:13.048Z,16.54
2023-05-22T02:03:13.373Z,16.59
2023-05-22T02:04:13.311Z,16.63
2023-05-22T02:05:13.506Z,16.63
2023-05-22T02:06:13.681Z,16.66
2023-05-22T02:07:13.958Z,16.67
2023-05-22T02:08:14.047Z,16.67
2023-05-22T02:09:14.217Z,16.66
2023-05-22T02:10:14.410Z,16.67
2023-05-22T02:11:14.573Z,16.63
2023-05-22T02:12:14.767Z,16.67
2023-05-22T02:13:14.949Z,16.66
2023-05-22T02:14:15.132Z,16.29
2023-05-22T02:15:15.979Z,16.30
2023-05-22T02:16:16.546Z,16.30
2023-05-22T02:17:15.747Z,16.08
2023-05-22T02:18:16.029Z,16.12
2023-05-22T02:19:16.156Z,16.25
2023-05-22T02:20:16.326Z,16.26
2023-05-22T02:21:16.506Z,16.25
2023-05-22T02:22:16.693Z,16.29
2023-05-22T02:23:16.883Z,16.30
2023-05-22T02:24:17.017Z,16.36
2023-05-22T02:25:17.561Z,16.39
2023-05-22T02:26:17.379Z,16.40
2023-05-22T02:27:17.625Z,16.42
2023-05-22T02:28:17.723Z,16.44
2023-05-22T02:29:17.884Z,16.46
2023-05-22T02:30:18.099Z,16.49
2023-05-22T02:31:18.320Z,16.50
2023-05-22T02:32:18.416Z,16.47
2023-05-22T02:33:18.590Z,16.49
2023-05-22T02:34:18.760Z,16.49
2023-05-22T02:35:18.943Z,16.49
2023-05-22T02:36:19.223Z,16.50
2023-05-22T02:37:19.314Z,16.50
2023-05-22T02:38:19.497Z,16.52
2023-05-22T02:39:19.696Z,16.53
2023-05-22T02:40:19.842Z,16.53
2023-05-22T02:41:20.007Z,16.52
2023-05-22T02:42:20.194Z,16.54
2023-05-22T02:43:20.368Z,16.57
2023-05-22T02:44:21.514Z,16.57
2023-05-22T02:45:20.697Z,16.59
2023-05-22T02:46:20.931Z,16.59
2023-05-22T02:47:22.026Z,16.52
2023-05-22T02:48:21.170Z,16.53
2023-05-22T02:49:21.334Z,16.52
2023-05-22T02:50:21.468Z,16.52
2023-05-22T02:51:21.605Z,16.52
2023-05-22T02:52:21.749Z,16.49
2023-05-22T02:53:21.904Z,16.49
2023-05-22T02:54:22.053Z,16.47
2023-05-22T02:55:22.184Z,16.43
2023-05-22T02:56:22.355Z,16.44
2023-05-22T02:57:22.490Z,16.40
2023-05-22T02:58:22.644Z,16.43
2023-05-22T02:59:22.784Z,16.42
2023-05-22T03:00:22.937Z,16.39
2023-05-22T03:01:23.225Z,16.37
2023-05-22T03:02:23.239Z,16.40
2023-05-22T03:03:23.518Z,16.36
2023-05-22T03:04:23.578Z,16.32
2023-05-22T03:05:23.702Z,16.35
2023-05-22T03:06:23.922Z,16.36
2023-05-22T03:07:24.133Z,16.37
2023-05-22T03:08:24.244Z,16.33
2023-05-22T03:09:24.431Z,16.33
2023-05-22T03:10:24.630Z,16.35
2023-05-22T03:11:24.854Z,16.33
2023-05-22T03:12:25.466Z,16.37
2023-05-22T03:13:25.216Z,16.35
2023-05-22T03:14:25.407Z,16.29
2023-05-22T03:15:25.597Z,16.36
2023-05-22T03:16:25.917Z,16.37
2023-05-22T03:17:26.028Z,16.32
2023-05-22T03:18:27.631Z,16.02
2023-05-22T03:19:26.632Z,16.08
2023-05-22T03:20:26.571Z,16.09
2023-05-22T03:21:27.162Z,16.13
2023-05-22T03:22:26.974Z,16.13
2023-05-22T03:23:27.196Z,16.12
2023-05-22T03:24:27.377Z,16.13
2023-05-22T03:25:27.571Z,16.13
2023-05-22T03:26:27.783Z,16.11
2023-05-22T03:27:27.973Z,16.13
2023-05-22T03:28:28.161Z,16.15
2023-05-22T03:29:28.370Z,16.15
2023-05-22T03:30:28.576Z,16.13
2023-05-22T03:31:28.843Z,16.12
2023-05-22T03:32:29.000Z,16.13
2023-05-22T03:33:29.228Z,16.12
2023-05-22T03:34:29.377Z,16.13
2023-05-22T03:35:29.581Z,16.16
2023-05-22T03:36:32.372Z,16.12
2023-05-22T03:37:29.947Z,16.09
2023-05-22T03:38:30.986Z,16.13
2023-05-22T03:39:30.263Z,16.12
2023-05-22T03:40:30.414Z,16.12
2023-05-22T03:41:30.577Z,16.11
2023-05-22T03:42:30.748Z,16.11
2023-05-22T03:43:30.900Z,16.12
2023-05-22T03:44:32.057Z,16.07
2023-05-22T03:45:31.251Z,16.11
2023-05-22T03:46:31.472Z,16.09
2023-05-22T03:47:31.583Z,16.12
2023-05-22T03:48:31.707Z,16.15
2023-05-22T03:49:31.855Z,16.15
2023-05-22T03:50:32.979Z,16.11
2023-05-22T03:51:32.158Z,16.02
2023-05-22T03:52:32.327Z,15.90
2023-05-22T03:53:33.035Z,15.83
2023-05-22T03:54:32.655Z,15.81
2023-05-22T03:55:32.822Z,15.83
2023-05-22T03:56:33.000Z,15.84
2023-05-22T03:57:33.227Z,15.77
2023-05-22T03:58:33.349Z,15.67
2023-05-22T03:59:33.522Z,15.67
2023-05-22T04:00:33.684Z,15.67
2023-05-22T04:01:33.855Z,15.70
2023-05-22T04:02:34.135Z,15.71
2023-05-22T04:03:34.207Z,15.73
2023-05-22T04:04:34.410Z,15.77
2023-05-22T04:05:34.534Z,15.75
2023-05-22T04:06:34.676Z,15.78
2023-05-22T04:07:34.919Z,15.81
2023-05-22T04:08:35.063Z,15.78
2023-05-22T04:09:35.273Z,15.75
2023-05-22T04:10:35.502Z,15.75
2023-05-22T04:11:35.810Z,15.75
2023-05-22T04:12:35.956Z,15.71
2023-05-22T04:13:36.149Z,15.81
2023-05-22T04:14:36.377Z,15.85
2023-05-22T04:15:36.652Z,15.88
2023-05-22T04:16:36.772Z,15.87
2023-05-22T04:17:37.012Z,15.90
2023-05-22T04:18:37.189Z,15.94
2023-05-22T04:19:37.388Z,15.94
2023-05-22T04:20:37.743Z,16.00
2023-05-22T04:21:37.791Z,16.01
2023-05-22T04:22:38.006Z,16.02
2023-05-22T04:23:38.251Z,16.07
2023-05-22T04:24:38.981Z,16.11
2023-05-22T04:25:38.602Z,16.12
2023-05-22T04:26:40.990Z,16.11
2023-05-22T04:27:38.944Z,16.09
2023-05-22T04:28:39.097Z,16.09
2023-05-22T04:29:39.259Z,16.09
2023-05-22T04:30:39.566Z,16.12
2023-05-22T04:31:39.612Z,16.05
2023-05-22T04:32:39.785Z,16.00
2023-05-22T04:33:39.905Z,15.95
2023-05-22T04:34:40.075Z,15.75
2023-05-22T04:35:40.253Z,15.70
2023-05-22T04:36:40.459Z,15.53
2023-05-22T04:37:41.036Z,15.35
2023-05-22T04:38:40.810Z,15.35
2023-05-22T04:39:40.994Z,15.45
2023-05-22T04:40:41.415Z,15.33
2023-05-22T04:41:41.993Z,15.45
2023-05-22T04:42:41.520Z,15.49
2023-05-22T04:43:41.689Z,15.58
2023-05-22T04:44:41.866Z,15.61
2023-05-22T04:45:41.996Z,15.66
2023-05-22T04:46:42.244Z,15.71
2023-05-22T04:47:42.354Z,15.68
2023-05-22T04:48:42.487Z,15.68
2023-05-22T04:49:42.675Z,15.61
2023-05-22T04:50:42.832Z,15.61
2023-05-22T04:51:42.999Z,15.47
2023-05-22T04:52:43.181Z,15.51
2023-05-22T04:53:43.345Z,15.46
2023-05-22T04:54:43.541Z,15.40
2023-05-22T04:55:43.701Z,15.43
2023-05-22T04:56:43.936Z,15.50
2023-05-22T04:57:44.026Z,15.60
2023-05-22T04:58:44.192Z,15.67
2023-05-22T04:59:44.462Z,15.70
2023-05-22T05:00:44.598Z,15.64
2023-05-22T05:01:44.898Z,15.63
2023-05-22T05:02:44.878Z,15.68
2023-05-22T05:03:45.081Z,15.77
2023-05-22T05:04:45.171Z,15.87
2023-05-22T05:05:45.328Z,15.74
2023-05-22T05:06:45.480Z,15.90
2023-05-22T05:07:47.713Z,15.91
2023-05-22T05:08:45.791Z,15.90
2023-05-22T05:09:46.056Z,15.87
2023-05-22T05:10:46.097Z,16.01
2023-05-22T05:11:46.266Z,15.85
2023-05-22T05:12:46.422Z,15.90
2023-05-22T05:13:46.585Z,15.88
2023-05-22T05:14:46.747Z,15.88
2023-05-22T05:15:46.922Z,15.88
2023-05-22T05:16:47.403Z,16.01
2023-05-22T05:17:47.244Z,16.09
2023-05-22T05:18:47.420Z,16.11
2023-05-22T05:19:48.496Z,16.00
2023-05-22T05:20:47.696Z,16.18
2023-05-22T05:21:47.849Z,16.18
2023-05-22T05:22:48.048Z,16.05
2023-05-22T05:23:48.212Z,16.02
2023-05-22T05:24:48.333Z,16.09
2023-05-22T05:25:48.480Z,16.00
2023-05-22T05:26:48.641Z,16.08
2023-05-22T05:27:48.802Z,16.01
2023-05-22T05:28:48.953Z,16.11
2023-05-22T05:29:49.133Z,16.05
2023-05-22T05:30:49.296Z,15.92
2023-05-22T05:31:49.488Z,15.83
2023-05-22T05:32:49.674Z,15.78
2023-05-22T05:33:49.816Z,15.80
2023-05-22T05:34:49.997Z,15.73
2023-05-22T05:35:50.162Z,15.53
2023-05-22T05:36:50.378Z,15.46
2023-05-22T05:37:50.519Z,15.57
2023-05-22T05:38:50.702Z,15.51
2023-05-22T05:39:50.889Z,15.50
2023-05-22T05:40:51.151Z,15.43
2023-05-22T05:41:51.247Z,15.35
2023-05-22T05:42:51.432Z,15.35
2023-05-22T05:43:51.636Z,15.39
2023-05-22T05:44:52.509Z,15.39
2023-05-22T05:45:52.010Z,15.45
2023-05-22T05:46:52.167Z,15.42
2023-05-22T05:47:52.371Z,15.33
2023-05-22T05:48:52.530Z,15.39
2023-05-22T05:49:53.014Z,15.45
2023-05-22T05:50:52.911Z,15.51
2023-05-22T05:51:53.071Z,15.51
2023-05-22T05:52:53.265Z,15.57
2023-05-22T05:53:53.433Z,15.68
2023-05-22T05:54:53.613Z,15.68
2023-05-22T05:55:53.811Z,15.74
2023-05-22T05:56:54.026Z,15.83
2023-05-22T05:57:54.265Z,15.85
2023-05-22T05:58:54.508Z,15.92
2023-05-22T05:59:55.482Z,15.91
2023-05-22T06:00:54.963Z,15.84
2023-05-22T06:01:58.972Z,15.92
2023-05-22T06:02:55.569Z,15.95
2023-05-22T06:03:55.603Z,16.11
2023-05-22T06:04:55.763Z,16.13
2023-05-22T06:05:55.926Z,16.26
2023-05-22T06:06:56.015Z,16.32
2023-05-22T06:07:56.526Z,16.39
2023-05-22T06:08:56.325Z,16.37
2023-05-22T06:09:56.490Z,16.39
2023-05-22T06:10:56.663Z,16.54
2023-05-22T06:11:56.813Z,16.57
2023-05-22T06:12:56.967Z,16.49
2023-05-22T06:13:57.153Z,16.56
2023-05-22T06:14:57.309Z,16.56
2023-05-22T06:15:59.383Z,16.59
2023-05-22T06:16:57.689Z,16.66
2023-05-22T06:17:57.840Z,16.68
2023-05-22T06:18:57.963Z,16.66
2023-05-22T06:19:58.169Z,16.81
2023-05-22T06:20:58.264Z,16.85
2023-05-22T06:21:58.418Z,16.96
2023-05-22T06:22:58.569Z,16.94
2023-05-22T06:23:58.732Z,17.06
2023-05-22T06:24:59.524Z,17.16
2023-05-22T06:25:58.992Z,17.21
2023-05-22T06:26:59.124Z,17.26
2023-05-22T06:28:00.028Z,17.32
2023-05-22T06:28:59.407Z,17.39
2023-05-22T06:29:59.533Z,17.37
2023-05-22T06:30:59.666Z,17.46
2023-05-22T06:31:59.833Z,17.51
2023-05-22T06:33:00.034Z,17.49
2023-05-22T06:34:00.132Z,17.49
2023-05-22T06:35:00.187Z,17.54
2023-05-22T06:36:00.331Z,17.66
2023-05-22T06:37:00.470Z,17.61
2023-05-22T06:38:00.593Z,17.68
2023-05-22T06:39:00.714Z,17.67
2023-05-22T06:40:00.839Z,17.61
2023-05-22T06:41:00.973Z,17.66
2023-05-22T06:42:01.117Z,17.67
2023-05-22T06:43:01.343Z,17.66
2023-05-22T06:44:01.383Z,17.74
2023-05-22T06:45:01.539Z,17.67
2023-05-22T06:46:01.737Z,17.77
2023-05-22T06:47:01.792Z,17.82
2023-05-22T06:48:02.543Z,17.73
2023-05-22T06:49:02.049Z,17.85
2023-05-22T06:50:02.252Z,17.80
2023-05-22T06:51:02.305Z,17.96
2023-05-22T06:52:05.108Z,17.96
2023-05-22T06:53:02.614Z,17.96
2023-05-22T06:54:02.672Z,18.01
2023-05-22T06:55:02.835Z,18.02
2023-05-22T06:56:02.917Z,18.10
2023-05-22T06:57:03.040Z,18.15
2023-05-22T06:58:03.225Z,18.19
2023-05-22T06:59:05.448Z,18.41
2023-05-22T07:00:03.395Z,18.51
2023-05-22T07:01:03.599Z,18.57
2023-05-22T07:02:03.619Z,18.65
2023-05-22T07:03:03.723Z,18.57
2023-05-22T07:04:03.814Z,18.46
2023-05-22T07:05:03.953Z,18.12
2023-05-22T07:06:04.153Z,18.43
2023-05-22T07:07:04.140Z,18.50
2023-05-22T07:08:04.240Z,18.64
2023-05-22T07:09:04.336Z,18.68
2023-05-22T07:10:04.454Z,18.81
2023-05-22T07:11:04.547Z,18.91
2023-05-22T07:12:04.652Z,18.92
2023-05-22T07:13:04.745Z,18.95
2023-05-22T07:14:04.826Z,18.89
2023-05-22T07:15:04.963Z,19.06
2023-05-22T07:16:05.057Z,19.16
2023-05-22T07:17:05.135Z,19.29
2023-05-22T07:18:05.293Z,19.31
2023-05-22T07:19:05.418Z,19.41
2023-05-22T07:20:05.435Z,19.54
2023-05-22T07:21:05.576Z,19.40
2023-05-22T07:22:05.630Z,19.47
2023-05-22T07:23:05.759Z,19.54
2023-05-22T07:24:05.808Z,19.57
2023-05-22T07:25:05.897Z,19.62
2023-05-22T07:26:05.983Z,19.69
2023-05-22T07:27:06.090Z,19.75
2023-05-22T07:28:09.341Z,19.57
2023-05-22T07:29:06.261Z,19.56
2023-05-22T07:30:06.342Z,19.61
2023-05-22T07:31:06.490Z,19.72
2023-05-22T07:32:06.593Z,19.92
2023-05-22T07:33:06.668Z,19.91
2023-05-22T07:34:06.683Z,20.06
2023-05-22T07:35:06.773Z,20.23
2023-05-22T07:36:06.907Z,20.30
2023-05-22T07:37:06.949Z,20.34
2023-05-22T07:38:07.040Z,20.31
2023-05-22T07:39:07.110Z,20.55
2023-05-22T07:40:07.194Z,20.48
2023-05-22T07:41:07.277Z,20.48
2023-05-22T07:42:07.353Z,20.67
2023-05-22T07:43:07.436Z,20.85
2023-05-22T07:44:07.505Z,20.95
2023-05-22T07:45:07.578Z,20.79
2023-05-22T07:46:07.700Z,20.99
2023-05-22T07:47:07.743Z,21.16
2023-05-22T07:48:07.839Z,21.29
2023-05-22T07:49:07.862Z,21.30
2023-05-22T07:50:08.020Z,21.23
2023-05-22T07:51:08.002Z,21.40
2023-05-22T07:52:08.069Z,21.38
2023-05-22T07:53:08.144Z,21.57
2023-05-22T07:54:08.253Z,21.54
2023-05-22T07:55:08.284Z,21.49
2023-05-22T07:56:08.347Z,21.54
2023-05-22T07:57:08.435Z,21.69
2023-05-22T07:58:08.501Z,21.51
2023-05-22T07:59:08.560Z,21.61
2023-05-22T08:00:08.630Z,21.68
2023-05-22T08:02:08.822Z,21.72
2023-05-22T08:03:08.966Z,21.85
2023-05-22T08:04:09.180Z,22.02
2023-05-22T08:05:08.962Z,22.04
2023-05-22T08:06:09.043Z,21.82
2023-05-22T08:07:09.042Z,21.95
2023-05-22T08:08:09.157Z,22.04
2023-05-22T08:09:10.042Z,22.21
2023-05-22T08:10:09.193Z,22.14
2023-05-22T08:11:09.388Z,22.04
2023-05-22T08:12:09.328Z,22.34
2023-05-22T08:13:09.380Z,22.51
2023-05-22T08:14:09.523Z,22.61
2023-05-22T08:15:09.472Z,22.69
2023-05-22T08:16:09.591Z,22.78
2023-05-22T08:17:09.629Z,22.86
2023-05-22T08:18:09.648Z,23.02
2023-05-22T08:19:09.732Z,22.99
2023-05-22T08:20:09.751Z,22.92
2023-05-22T08:21:09.813Z,23.13
2023-05-22T08:22:09.766Z,23.21
2023-05-22T08:23:09.812Z,23.28
2023-05-22T08:24:09.875Z,23.31
2023-05-22T08:25:09.915Z,23.40
2023-05-22T08:26:09.939Z,23.45
2023-05-22T08:27:10.000Z,23.52
2023-05-22T08:28:10.025Z,23.56
2023-05-22T08:29:10.060Z,23.58
2023-05-22T08:30:11.052Z,23.58
2023-05-22T08:31:10.158Z,23.56
2023-05-22T08:32:10.218Z,23.61
2023-05-22T08:33:10.241Z,23.68
2023-05-22T08:34:10.231Z,23.75
2023-05-22T08:35:10.271Z,23.58
2023-05-22T08:36:10.304Z,23.69
2023-05-22T08:37:10.354Z,23.66
2023-05-22T08:38:10.565Z,23.48
2023-05-22T08:39:10.449Z,23.69
2023-05-22T08:40:10.504Z,23.73
2023-05-22T08:41:10.545Z,23.77
2023-05-22T08:42:10.579Z,23.87
2023-05-22T08:43:10.615Z,23.97
2023-05-22T08:44:10.726Z,23.99
2023-05-22T08:45:10.683Z,23.77
2023-05-22T08:46:10.721Z,23.83
2023-05-22T08:47:10.836Z,23.99
2023-05-22T08:48:10.855Z,23.97
2023-05-22T08:49:10.808Z,24.04
2023-05-22T08:50:10.826Z,23.90
2023-05-22T08:51:10.859Z,24.11
2023-05-22T08:52:10.887Z,24.20
2023-05-22T08:53:10.906Z,23.96
2023-05-22T08:54:11.072Z,24.18
2023-05-22T08:55:11.033Z,24.28
2023-05-22T08:56:11.123Z,24.31
2023-05-22T08:57:11.176Z,24.30
2023-05-22T08:58:11.281Z,24.39
2023-05-22T08:59:11.316Z,24.27
2023-05-22T09:00:12.346Z,24.36
2023-05-22T09:01:11.388Z,24.41
2023-05-22T09:02:11.388Z,24.45
2023-05-22T09:03:11.517Z,24.44
2023-05-22T09:04:11.581Z,24.38
2023-05-22T09:05:11.440Z,24.47
2023-05-22T09:06:11.469Z,24.28
2023-05-22T09:07:11.560Z,24.44
2023-05-22T09:08:19.863Z,24.50
2023-05-22T09:09:12.591Z,24.58
2023-05-22T09:10:11.567Z,24.61
2023-05-22T09:11:12.583Z,24.65
2023-05-22T09:12:11.591Z,24.65
2023-05-22T09:13:11.625Z,24.70
2023-05-22T09:14:11.717Z,24.59
2023-05-22T09:15:12.576Z,24.48
2023-05-22T09:16:11.711Z,24.45
2023-05-22T09:17:11.728Z,24.41
2023-05-22T09:18:12.089Z,24.56
2023-05-22T09:19:11.739Z,24.62
2023-05-22T09:20:11.870Z,24.73
2023-05-22T09:21:25.986Z,24.76
2023-05-22T09:22:12.763Z,24.66
2023-05-22T09:23:12.569Z,24.79
2023-05-22T09:24:12.579Z,24.85
2023-05-22T09:25:11.800Z,24.79
2023-05-22T09:26:11.805Z,24.89
2023-05-22T09:27:11.892Z,24.90
2023-05-22T09:28:11.908Z,24.98
2023-05-22T09:29:11.849Z,25.06
2023-05-22T09:30:11.861Z,25.06
2023-05-22T09:31:11.886Z,25.14
2023-05-22T09:32:11.882Z,25.06
2023-05-22T09:33:13.154Z,25.14
2023-05-22T09:34:11.898Z,25.18
2023-05-22T09:35:11.915Z,25.28
2023-05-22T09:36:11.911Z,25.27
2023-05-22T09:37:11.907Z,25.13
2023-05-22T09:38:12.441Z,25.27
2023-05-22T09:39:11.911Z,25.27
2023-05-22T09:40:11.919Z,25.34
2023-05-22T09:41:11.988Z,25.42
2023-05-22T09:42:11.909Z,25.46
2023-05-22T09:43:12.913Z,25.41
2023-05-22T09:44:11.919Z,25.27
2023-05-22T09:45:11.904Z,25.42
2023-05-22T09:46:11.930Z,25.41
2023-05-22T09:47:11.916Z,25.48
2023-05-22T09:48:11.973Z,25.56
2023-05-22T09:49:15.048Z,25.52
2023-05-22T09:50:11.926Z,25.42
2023-05-22T09:51:12.003Z,25.50
2023-05-22T09:52:11.965Z,25.48
2023-05-22T09:53:11.938Z,25.53
2023-05-22T09:54:11.958Z,25.42
2023-05-22T09:55:11.952Z,25.50
2023-05-22T09:56:12.037Z,25.68
2023-05-22T09:57:11.967Z,25.52
2023-05-22T09:58:11.999Z,25.73
2023-05-22T09:59:11.925Z,25.76
2023-05-22T10:00:11.918Z,25.25
2023-05-22T10:01:11.915Z,25.52
2023-05-22T10:02:11.952Z,25.49
2023-05-22T10:03:11.928Z,25.66
2023-05-22T10:04:11.995Z,25.75
2023-05-22T10:05:11.938Z,25.80
2023-05-22T10:06:11.928Z,25.73
2023-05-22T10:07:11.918Z,25.87
2023-05-22T10:08:11.973Z,25.93
2023-05-22T10:09:11.904Z,25.96
2023-05-22T10:10:11.923Z,25.69
2023-05-22T10:11:12.103Z,25.91
2023-05-22T10:12:11.927Z,25.94
2023-05-22T10:13:12.042Z,25.69
2023-05-22T10:14:11.905Z,25.76
2023-05-22T10:15:12.636Z,25.83
2023-05-22T10:16:11.991Z,25.91
2023-05-22T10:17:11.934Z,26.03
2023-05-22T10:18:11.972Z,26.03
2023-05-22T10:19:12.187Z,25.87
2023-05-22T10:20:11.934Z,25.96
2023-05-22T10:21:11.930Z,25.87
2023-05-22T10:22:11.928Z,25.80
2023-05-22T10:23:11.932Z,26.03
2023-05-22T10:24:12.018Z,26.11
2023-05-22T10:25:11.928Z,26.18
2023-05-22T10:26:11.923Z,25.76
2023-05-22T10:27:11.934Z,26.03
2023-05-22T10:28:11.910Z,26.01
2023-05-22T10:29:11.921Z,26.07
2023-05-22T10:30:12.114Z,26.17
2023-05-22T10:31:11.909Z,26.18
2023-05-22T10:32:11.906Z,26.17
2023-05-22T10:33:11.946Z,25.89
2023-05-22T10:34:11.956Z,26.16
2023-05-22T10:35:11.889Z,26.28
2023-05-22T10:36:11.889Z,26.41
2023-05-22T10:37:18.514Z,26.23
2023-05-22T10:38:12.869Z,26.27
2023-05-22T10:39:12.124Z,26.21
2023-05-22T10:40:11.936Z,26.51
2023-05-22T10:41:11.871Z,26.66
2023-05-22T10:42:11.824Z,26.75
2023-05-22T10:43:11.819Z,26.69
2023-05-22T10:44:11.785Z,26.70
2023-05-22T10:45:11.777Z,26.25
2023-05-22T10:46:11.910Z,26.45
2023-05-22T10:47:11.881Z,26.70
2023-05-22T10:48:11.761Z,26.83
2023-05-22T10:49:12.733Z,26.87
2023-05-22T10:50:11.775Z,27.03
2023-05-22T10:51:11.700Z,26.97
2023-05-22T10:52:11.679Z,27.20
2023-05-22T10:53:11.662Z,26.98
2023-05-22T10:54:11.642Z,27.24
2023-05-22T10:55:11.619Z,27.29
2023-05-22T10:56:12.211Z,27.49
2023-05-22T10:57:11.608Z,27.50
2023-05-22T10:58:11.604Z,27.50
2023-05-22T10:59:11.481Z,27.53
2023-05-22T11:00:11.479Z,27.72
2023-05-22T11:01:11.504Z,27.46
2023-05-22T11:02:11.664Z,27.77
2023-05-22T11:03:17.808Z,27.24
2023-05-22T11:04:12.642Z,27.57
2023-05-22T11:05:11.502Z,27.82
2023-05-22T11:06:11.416Z,27.59
2023-05-22T11:07:11.398Z,27.72
2023-05-22T11:08:11.356Z,27.83
2023-05-22T11:09:11.324Z,27.77
2023-05-22T11:10:11.318Z,27.83
2023-05-22T11:11:11.273Z,27.80
2023-05-22T11:12:11.643Z,27.83
2023-05-22T11:13:11.221Z,27.94
2023-05-22T11:14:11.190Z,27.67
2023-05-22T11:15:11.161Z,27.87
2023-05-22T11:16:11.137Z,28.00
2023-05-22T11:17:11.778Z,28.04
2023-05-22T11:18:11.130Z,27.94
2023-05-22T11:19:22.819Z,28.17
2023-05-22T11:20:12.098Z,27.98
2023-05-22T11:21:10.983Z,28.18
2023-05-22T11:22:10.948Z,28.12
2023-05-22T11:23:10.955Z,28.21
2023-05-22T11:24:10.883Z,28.04
2023-05-22T11:25:10.873Z,28.21
2023-05-22T11:26:10.805Z,28.48
2023-05-22T11:27:10.766Z,28.38
2023-05-22T11:28:10.862Z,28.64
2023-05-22T11:29:10.692Z,28.45
2023-05-22T11:30:10.670Z,28.49
2023-05-22T11:31:10.657Z,28.71
2023-05-22T11:32:10.566Z,28.69
2023-05-22T11:33:10.618Z,28.73
2023-05-22T11:34:10.497Z,28.74
2023-05-22T11:35:10.474Z,28.73
2023-05-22T11:36:10.419Z,28.67
2023-05-22T11:37:10.377Z,28.89
2023-05-22T11:38:10.411Z,28.93
2023-05-22T11:39:10.296Z,28.83
2023-05-22T11:40:10.276Z,29.01
2023-05-22T11:41:10.213Z,28.97
2023-05-22T11:42:10.175Z,29.18
2023-05-22T11:43:10.129Z,29.07
2023-05-22T11:44:10.179Z,29.49
2023-05-22T11:45:10.059Z,29.50
2023-05-22T11:46:09.998Z,29.64
2023-05-22T11:47:09.963Z,29.62
2023-05-22T11:48:10.006Z,29.87
2023-05-22T11:49:09.949Z,29.84
2023-05-22T11:50:09.941Z,29.73
2023-05-22T11:51:09.896Z,29.31
2023-05-22T11:52:09.948Z,29.73
2023-05-22T11:53:10.083Z,29.87
2023-05-22T11:54:10.102Z,29.83
2023-05-22T11:55:10.276Z,30.04
2023-05-22T11:56:10.434Z,30.22
2023-05-22T11:57:10.572Z,30.33
2023-05-22T11:58:10.587Z,30.43
2023-05-22T11:59:10.722Z,30.58
2023-05-22T12:00:11.116Z,30.52
2023-05-22T12:01:11.005Z,30.80
2023-05-22T12:02:11.045Z,30.73
2023-05-22T12:03:11.196Z,30.93
2023-05-22T12:04:11.506Z,30.97
2023-05-22T12:05:11.174Z,31.10
2023-05-22T12:06:11.230Z,31.26
2023-05-22T12:07:11.102Z,31.33
2023-05-22T12:08:11.122Z,31.32
2023-05-22T12:09:10.996Z,31.26
2023-05-22T12:10:11.043Z,31.33
2023-05-22T12:11:10.949Z,31.52
2023-05-22T12:12:11.001Z,31.54
2023-05-22T12:13:11.112Z,31.70
2023-05-22T12:14:11.208Z,31.64
2023-05-22T12:15:11.327Z,31.45
2023-05-22T12:16:11.538Z,31.35
2023-05-22T12:17:11.527Z,31.32
2023-05-22T12:18:11.869Z,31.53
2023-05-22T12:19:11.805Z,31.39
2023-05-22T12:20:11.780Z,31.43
2023-05-22T12:21:11.905Z,31.25
2023-05-22T12:22:12.049Z,31.30
2023-05-22T12:23:12.115Z,31.42
2023-05-22T12:24:12.219Z,31.63
2023-05-22T12:25:12.304Z,31.84
2023-05-22T12:26:12.352Z,31.83
2023-05-22T12:27:12.231Z,31.92
2023-05-22T12:28:12.183Z,32.18
2023-05-22T12:29:12.206Z,32.42
2023-05-22T12:30:12.149Z,32.62
2023-05-22T12:31:12.071Z,32.80
2023-05-22T12:32:12.192Z,32.88
2023-05-22T12:33:11.995Z,33.09
2023-05-22T12:34:11.883Z,33.15
2023-05-22T12:35:11.854Z,33.28
2023-05-22T12:36:11.742Z,33.45
2023-05-22T12:37:11.626Z,33.37
2023-05-22T12:38:11.543Z,33.52
2023-05-22T12:39:11.414Z,33.71
2023-05-22T12:40:11.350Z,33.84
2023-05-22T12:41:11.209Z,33.98
2023-05-22T12:42:11.095Z,34.05
2023-05-22T12:43:11.010Z,34.07
2023-05-22T12:44:10.931Z,34.15
2023-05-22T12:45:10.886Z,34.19
2023-05-22T12:46:10.760Z,34.11
2023-05-22T12:47:10.622Z,34.21
2023-05-22T12:48:10.655Z,34.29
2023-05-22T12:49:10.429Z,34.39
2023-05-22T12:50:10.375Z,34.47
2023-05-22T12:51:10.371Z,34.50
2023-05-22T12:52:10.276Z,34.57
2023-05-22T12:53:10.174Z,34.70
2023-05-22T12:54:10.105Z,34.81
2023-05-22T12:55:10.069Z,34.77